Boscobel, WI (53805)

7:34 AM CDT on August 04, 2015 (GMT -0500)
Boscobel | | Change Station
CLOSE
Current Station
Airport
Location: Boscobel,
Elevation: 673 ft
Nearby Weather Stations

Elev 673 ft 43.16 °N, 90.68 °W | Updated 41 minutes ago

Scattered Clouds
Scattered Clouds
56 °F
Feels Like 56 °F
N
5
Wind Variable Wind from SW

Today
High -- | Low -- °F
--% Chance of Precip.
Yesterday
High -- | Low -- °F
Precip. -- in
5:56 AM 8:20 PM
Waning Gibbous, 78% visible
Pressure 29.99 in
Visibility 10.0 miles
Clouds Scattered Clouds 200 ft
Dew Point 54 °F
Humidity 93%
Rainfall 0.00 in
Snow Depth Not available.
UV 0 out of 12
Pollen 6.60 out of 12
Air Quality Not available.
Flu Activity Not available.
METAR KOVS 041153Z AUTO 22004KT 10SM SCT002 13/12 A2999 RMK AO2 SLP154 T01330122 10139 20111 53018

More Conditions Fewer Conditions

Pressure 29.99 in
Visibility 10.0 miles
Clouds Scattered Clouds 200 ft
Dew Point 54 °F
Humidity 93%
Rainfall 0.00 in
Snow Depth Not available.
UV 0 out of 12
Pollen 6.60 out of 12
Air Quality Not available.
Flu Activity Not available.
METAR KOVS 041153Z AUTO 22004KT 10SM SCT002 13/12 A2999 RMK AO2 SLP154 T01330122 10139 20111 53018

More Conditions Fewer Conditions

10-Day Weather Forecast

×

Almanac

Astronomy

Aug. 04, 2015 Rise Set
Actual Time
Civil Twilight
Nautical Twilight
Astronomical Twilight
Moon
Length of Visible Light
Length of Day
Tomorrow will be .
, % of the Moon is Illuminated

Today's Extremes

State Highs State Lows

Community

WunderPhotos

Upload Photos

1,843,911 photos uploaded!

WunderBlogs® & News

Nearby

Air Quality

  Air Quality AQ Index Pollutant
Not available.

Snow Depth

Station Depth Elevation

Earthquake Activity

City Distance Mag. Time & Date
Minimum magnitude displayed is 2.5.

Coastal Water Temperatures

Place Temperature

Stations

Nearby Weather Stations

Station Location Temp. Windchill Dew Point Humidity Wind Precip. Elev Updated Type